Thursday, April 24, 2014, 4:22 AM EDT

KOKV, Winchester Regional

Location: Winchester, VA, United States Lat: 39.15
Local Time: 4:22 AM EDT ( 8:22 GMT) Lon: -78.15
Time Zone: US/Eastern Elev: 728 ft

Show me the last for .
Show Decoded

2014-04-24 03:55 METAR KOKV 240755Z AUTO 30010KT 10SM CLR 06/M05 A3005 RMK AO2 =
2014-04-24 03:35 METAR KOKV 240735Z AUTO 29011G15KT 10SM CLR 06/M04 A3004 RMK AO2 =
2014-04-24 03:15 METAR KOKV 240715Z AUTO 30008KT 10SM CLR 05/M03 A3003 RMK AO2 =
2014-04-24 02:55 METAR KOKV 240655Z AUTO 32004KT 10SM CLR 05/M03 A3003 RMK AO2 =
2014-04-24 02:35 METAR KOKV 240635Z AUTO 31008KT 10SM CLR 06/M03 A3003 RMK AO2 =
2014-04-24 02:15 METAR KOKV 240615Z AUTO 32009KT 290V350 10SM CLR 07/M03 A3003 RMK AO2 =
2014-04-24 01:55 METAR KOKV 240555Z AUTO 31011G17KT 10SM CLR 07/M02 A3003 RMK AO2 =
2014-04-24 01:35 METAR KOKV 240535Z AUTO 31011KT 10SM CLR 06/M02 A3003 RMK AO2 =
2014-04-24 01:15 METAR KOKV 240515Z AUTO 31013G18KT 10SM CLR 07/M02 A3003 RMK AO2 =
2014-04-24 00:55 METAR KOKV 240455Z AUTO 31013G16KT 10SM CLR 07/M01 A3003 RMK AO2 =
2014-04-24 00:35 METAR KOKV 240435Z AUTO 31011G15KT 10SM CLR 07/M01 A3003 RMK AO2 =
2014-04-24 00:15 METAR KOKV 240415Z AUTO 32008KT 10SM CLR 07/M01 A3003 RMK AO2 =
2014-04-23 23:55 METAR KOKV 240355Z AUTO 32009KT 10SM CLR 07/M01 A3003 RMK AO2 =
2014-04-23 23:35 METAR KOKV 240335Z AUTO 33007KT 10SM CLR 07/M01 A3003 RMK AO2 =
2014-04-23 23:15 METAR KOKV 240315Z AUTO 32009KT 10SM CLR 07/M01 A3003 RMK AO2 =
2014-04-23 22:55 METAR KOKV 240255Z AUTO 36004KT 10SM CLR 08/M01 A3003 RMK AO2 =
2014-04-23 22:35 METAR KOKV 240235Z AUTO 33004KT 10SM CLR 08/M01 A3003 RMK AO2 =
2014-04-23 22:15 METAR KOKV 240215Z AUTO 34007KT 310V020 10SM CLR 08/M01 A3002 RMK AO2 =
2014-04-23 21:55 METAR KOKV 240155Z AUTO 00000KT 10SM CLR 08/M01 A3002 RMK AO2 =
2014-04-23 21:35 METAR KOKV 240135Z AUTO 32009G15KT 300V360 10SM CLR 08/00 A3000 RMK AO2 =
2014-04-23 20:55 METAR KOKV 240055Z AUTO 30018G23KT 10SM CLR 10/00 A2997 RMK AO2 =
2014-04-23 20:35 METAR KOKV 240035Z AUTO 30016G23KT 10SM CLR 10/00 A2997 RMK AO2 =
2014-04-23 20:15 METAR KOKV 240015Z AUTO 30016G22KT 10SM CLR 10/00 A2995 RMK AO2 =
2014-04-23 19:55 METAR KOKV 232355Z AUTO 31013G19KT 10SM CLR 10/00 A2995 RMK AO2 =
2014-04-23 19:35 METAR KOKV 232335Z AUTO 32010G15KT 10SM CLR 11/00 A2994 RMK AO2 =
2014-04-23 19:15 METAR KOKV 232315Z AUTO 30014G23KT 10SM CLR 11/00 A2992 RMK AO2 =
2014-04-23 18:55 METAR KOKV 232255Z AUTO 30017G23KT 10SM CLR 12/00 A2992 RMK AO2 =
2014-04-23 18:35 METAR KOKV 232235Z AUTO 30020G23KT 10SM CLR 12/00 A2992 RMK AO2 =
2014-04-23 18:15 METAR KOKV 232215Z AUTO 31014G25KT 10SM CLR 12/00 A2991 RMK AO2 =
2014-04-23 17:55 METAR KOKV 232155Z AUTO 31020G28KT 10SM CLR 12/00 A2991 RMK AO2 =
2014-04-23 17:35 METAR KOKV 232135Z AUTO 31019G30KT 10SM SCT050 13/00 A2990 RMK AO2 =
2014-04-23 17:15 METAR KOKV 232115Z AUTO 31013G20KT 290V350 10SM SCT048 13/00 A2990 RMK AO2 =
2014-04-23 16:55 METAR KOKV 232055Z AUTO 33011G25KT 10SM SCT048 12/00 A2990 RMK AO2 =
2014-04-23 16:35 METAR KOKV 232035Z AUTO 30019G31KT 10SM SCT048 13/00 A2989 RMK AO2 =
2014-04-23 16:15 METAR KOKV 232015Z AUTO 31023G29KT 10SM BKN048 13/01 A2989 RMK AO2 =
2014-04-23 15:55 METAR KOKV 231955Z AUTO 29015G24KT 10SM OVC048 13/01 A2988 RMK AO2 =
2014-04-23 15:35 METAR KOKV 231935Z AUTO 31016G28KT 10SM OVC048 13/01 A2988 RMK AO2 =
2014-04-23 15:15 METAR KOKV 231915Z AUTO 30021G26KT 10SM OVC050 14/01 A2988 RMK AO2 =
2014-04-23 14:35 METAR KOKV 231835Z AUTO 29019G27KT 10SM BKN046 13/01 A2989 RMK AO2 =
2014-04-23 14:15 METAR KOKV 231815Z AUTO 30017G25KT 10SM BKN046 12/01 A2988 RMK AO2 =
2014-04-23 13:55 METAR KOKV 231755Z AUTO 31021G29KT 10SM SCT046 13/01 A2988 RMK AO2 =
2014-04-23 13:35 METAR KOKV 231735Z AUTO 31014G28KT 10SM BKN046 12/01 A2988 RMK AO2 =
2014-04-23 13:15 METAR KOKV 231715Z AUTO 33014G28KT 10SM BKN046 12/00 A2987 RMK AO2 =
2014-04-23 12:55 METAR KOKV 231655Z AUTO 31021G27KT 10SM SCT046 12/01 A2987 RMK AO2 =
2014-04-23 12:35 METAR KOKV 231635Z AUTO 32021G30KT 10SM CLR 12/01 A2986 RMK AO2 =
2014-04-23 12:15 METAR KOKV 231615Z AUTO 30021G25KT 10SM CLR 12/01 A2986 RMK AO2 =
2014-04-23 11:55 METAR KOKV 231555Z AUTO 30025G32KT 10SM CLR 12/00 A2985 RMK AO2 =
2014-04-23 11:35 METAR KOKV 231535Z AUTO 31019G30KT 10SM CLR 12/01 A2986 RMK AO2 =
2014-04-23 11:15 METAR KOKV 231515Z AUTO 29024G32KT 10SM SCT100 11/00 A2984 RMK AO2 =
2014-04-23 10:55 METAR KOKV 231455Z AUTO 30024G31KT 10SM SCT100 11/00 A2986 RMK AO2 =
2014-04-23 10:35 METAR KOKV 231435Z AUTO 30017G27KT 10SM SCT041 11/00 A2986 RMK AO2 =
2014-04-23 10:15 METAR KOKV 231415Z AUTO 31020G28KT 10SM BKN041 10/00 A2986 RMK AO2 =
2014-04-23 09:55 METAR KOKV 231355Z AUTO 30017G25KT 10SM OVC041 09/00 A2987 RMK AO2 =
2014-04-23 09:35 METAR KOKV 231335Z AUTO 31014G26KT 10SM BKN043 08/00 A2986 RMK AO2 =
2014-04-23 09:15 METAR KOKV 231315Z AUTO 30027G37KT 10SM SCT043 SCT048 08/M01 A2984 RMK AO2 =
2014-04-23 08:55 METAR KOKV 231255Z AUTO 30025G30KT 10SM BKN043 08/00 A2983 RMK AO2 =
2014-04-23 08:35 METAR KOKV 231235Z AUTO 30025G31KT 10SM BKN041 OVC047 09/00 A2984 RMK AO2 =
2014-04-23 08:15 METAR KOKV 231215Z AUTO 31013G26KT 10SM BKN040 OVC047 08/00 A2984 RMK AO2 =
2014-04-23 07:55 METAR KOKV 231155Z AUTO 31016G23KT 10SM OVC044 08/00 A2983 RMK AO2 =
2014-04-23 07:35 METAR KOKV 231135Z AUTO 31017G24KT 10SM BKN042 OVC048 08/00 A2982 RMK AO2 =
2014-04-23 07:15 METAR KOKV 231115Z AUTO 31017G25KT 10SM SCT040 OVC046 08/00 A2980 RMK AO2 =
2014-04-23 06:55 METAR KOKV 231055Z AUTO 33011G19KT 10SM OVC046 08/00 A2980 RMK AO2 =
2014-04-23 06:35 METAR KOKV 231035Z AUTO 30019G24KT 10SM OVC048 09/00 A2978 RMK AO2 =
2014-04-23 06:15 METAR KOKV 231015Z AUTO 30013G23KT 10SM OVC050 09/00 A2977 RMK AO2 =
2014-04-23 05:55 METAR KOKV 230955Z AUTO 30007G22KT 10SM BKN050 09/00 A2977 RMK AO2 =
2014-04-23 05:35 METAR KOKV 230935Z AUTO 29007KT 10SM SCT055 08/00 A2976 RMK AO2 =
2014-04-23 05:15 METAR KOKV 230915Z AUTO 29010G18KT 10SM CLR 08/00 A2976 RMK AO2 =
2014-04-23 04:55 METAR KOKV 230855Z AUTO 31008G14KT 10SM SCT065 08/00 A2976 RMK AO2 =
2014-04-23 04:35 METAR KOKV 230835Z AUTO 31011G22KT 10SM CLR 08/00 A2975 RMK AO2 =

Support USWX by starting your Amazon purchase here.